Time;durP1;ratioP1;P1;durP2;ratioP2;P2;SDS_P1;SDS_P2;PMS_P1;PMS_P2;Temp;Humidity;BMP_temperature;BMP_pressure;BME280_temperature;BME280_humidity;BME280_pressure;Samples;Min_cycle;Max_cycle;Signal;HPM_P1;HPM_P2
2021/07/23 00:02:01;;;;;;;4.07;3.67;;;23.20;99.90;;;;;;5135065;27;20453;-80
2021/07/23 00:04:29;;;;;;;3.90;3.27;;;23.20;99.90;;;;;;5135891;27;20441;-82
2021/07/23 00:06:56;;;;;;;4.13;3.83;;;23.10;99.90;;;;;;5120239;27;20458;-80
2021/07/23 00:09:22;;;;;;;3.30;3.00;;;23.10;99.90;;;;;;5115912;27;20451;-80
2021/07/23 00:11:50;;;;;;;3.57;3.23;;;23.10;99.90;;;;;;5115134;28;20820;-79
2021/07/23 00:14:16;;;;;;;3.20;2.90;;;23.10;99.90;;;;;;5118282;27;20518;-81
2021/07/23 00:16:43;;;;;;;4.83;3.17;;;23.10;99.90;;;;;;5135835;27;20434;-80
2021/07/23 00:19:10;;;;;;;3.43;3.13;;;23.10;99.90;;;;;;5121781;27;20481;-80
2021/07/23 00:21:38;;;;;;;3.53;3.27;;;23.00;99.90;;;;;;5135003;27;20961;-80
2021/07/23 00:24:06;;;;;;;3.47;3.10;;;23.10;99.90;;;;;;5134046;27;20446;-87
2021/07/23 00:26:32;;;;;;;3.30;3.00;;;23.00;99.90;;;;;;5135070;27;20485;-82
2021/07/23 00:28:59;;;;;;;3.00;2.80;;;23.00;99.90;;;;;;5135397;27;20450;-88
2021/07/23 00:31:26;;;;;;;3.43;3.23;;;23.00;99.90;;;;;;5130432;27;20792;-86
2021/07/23 00:33:52;;;;;;;3.40;3.20;;;23.00;99.90;;;;;;5114883;27;20447;-84
2021/07/23 00:36:19;;;;;;;5.10;3.23;;;23.00;99.90;;;;;;5114251;28;20431;-79
2021/07/23 00:38:47;;;;;;;3.37;3.17;;;23.00;99.90;;;;;;5128231;27;20446;-81
2021/07/23 00:41:14;;;;;;;3.47;3.17;;;22.90;99.90;;;;;;5114934;27;20443;-85
2021/07/23 00:43:41;;;;;;;3.63;3.43;;;22.90;99.90;;;;;;5115076;27;20451;-82
2021/07/23 00:46:07;;;;;;;3.43;3.13;;;22.90;99.90;;;;;;5114056;28;20486;-82
2021/07/23 00:48:34;;;;;;;3.77;3.47;;;22.90;99.90;;;;;;5117490;27;20926;-81
2021/07/23 00:51:01;;;;;;;3.75;3.45;;;22.80;99.90;;;;;;5129869;27;20451;-82
2021/07/23 00:53:28;;;;;;;3.23;2.93;;;22.80;99.90;;;;;;5114445;27;20200;-79
2021/07/23 00:55:58;;;;;;;3.70;3.40;;;22.80;99.90;;;;;;5114238;28;20787;-82
2021/07/23 00:58:26;;;;;;;3.83;3.10;;;22.80;99.90;;;;;;5114972;27;20450;-79
2021/07/23 01:00:54;;;;;;;3.50;3.30;;;22.80;99.90;;;;;;5128240;27;20500;-80
2021/07/23 01:03:22;;;;;;;3.80;2.97;;;22.80;99.90;;;;;;5133017;27;20449;-82
2021/07/23 01:05:50;;;;;;;3.00;2.80;;;22.70;99.90;;;;;;5132841;27;20499;-80
2021/07/23 01:08:17;;;;;;;3.50;3.20;;;22.80;99.90;;;;;;5131344;27;20457;-84
2021/07/23 01:10:44;;;;;;;3.40;3.10;;;22.70;99.90;;;;;;5121865;27;20450;-80
2021/07/23 01:13:12;;;;;;;4.20;3.90;;;22.70;99.90;;;;;;5113128;28;20201;-79
2021/07/23 01:15:39;;;;;;;3.23;3.03;;;22.60;99.90;;;;;;5114289;28;20812;-79
2021/07/23 01:18:06;;;;;;;3.50;3.20;;;22.60;99.90;;;;;;5114239;27;20435;-80
2021/07/23 01:20:33;;;;;;;3.17;2.97;;;22.60;99.90;;;;;;5124485;27;20771;-80
2021/07/23 01:23:02;;;;;;;3.90;3.60;;;22.60;99.90;;;;;;5113082;27;20436;-80
2021/07/23 01:25:30;;;;;;;4.00;3.70;;;22.60;99.90;;;;;;5121747;28;20213;-81
2021/07/23 01:27:57;;;;;;;3.90;3.67;;;22.60;99.90;;;;;;5123937;28;20455;-81
2021/07/23 01:30:25;;;;;;;3.47;3.27;;;22.50;99.90;;;;;;5122787;28;20769;-80
2021/07/23 01:32:53;;;;;;;2.97;2.77;;;22.50;99.90;;;;;;5133201;27;20442;-80
2021/07/23 01:35:20;;;;;;;3.57;3.27;;;22.50;99.90;;;;;;5132946;27;20439;-82
2021/07/23 01:37:47;;;;;;;3.50;3.30;;;22.50;99.90;;;;;;5123724;27;20798;-80
2021/07/23 01:40:15;;;;;;;3.10;2.90;;;22.50;99.90;;;;;;5132637;28;20196;-81
2021/07/23 01:42:44;;;;;;;3.13;2.87;;;22.40;99.90;;;;;;5119043;27;20971;-81
2021/07/23 01:45:12;;;;;;;3.50;3.20;;;22.40;99.90;;;;;;5130234;28;20551;-82
2021/07/23 01:47:39;;;;;;;3.35;3.00;;;22.40;99.90;;;;;;5124770;27;20198;-81
2021/07/23 01:50:07;;;;;;;3.38;3.08;;;22.40;99.90;;;;;;5119013;28;20642;-80
2021/07/23 01:52:34;;;;;;;3.35;3.15;;;22.40;99.90;;;;;;5131926;27;20236;-79
2021/07/23 01:55:01;;;;;;;3.55;3.20;;;22.40;99.90;;;;;;5118763;27;20194;-80
2021/07/23 01:57:28;;;;;;;3.60;3.30;;;22.30;99.90;;;;;;5127882;27;20196;-80
2021/07/23 01:59:56;;;;;;;5.93;2.70;;;22.30;99.90;;;;;;5132085;28;20438;-80
2021/07/23 02:02:22;;;;;;;3.40;3.05;;;22.30;99.90;;;;;;5133923;27;20201;-79
2021/07/23 02:04:49;;;;;;;4.00;3.60;;;22.30;99.90;;;;;;5121010;27;20241;-80
2021/07/23 02:07:16;;;;;;;3.25;2.95;;;22.30;99.90;;;;;;5131802;27;20478;-80
2021/07/23 02:09:43;;;;;;;3.47;3.20;;;22.20;99.90;;;;;;5124830;27;20255;-80
2021/07/23 02:12:10;;;;;;;3.13;2.92;;;22.20;99.90;;;;;;5137068;27;20200;-80
2021/07/23 02:14:36;;;;;;;3.10;2.83;;;22.20;99.90;;;;;;5121293;27;20305;-80
2021/07/23 02:17:04;;;;;;;2.95;2.75;;;22.20;99.90;;;;;;5116023;28;20435;-79
2021/07/23 02:19:31;;;;;;;3.75;3.45;;;22.10;99.90;;;;;;5128725;27;20197;-80
2021/07/23 02:21:58;;;;;;;4.05;3.72;;;22.10;99.90;;;;;;5133255;27;20221;-80
2021/07/23 02:24:24;;;;;;;3.20;2.90;;;22.10;99.90;;;;;;5115984;28;20208;-80
2021/07/23 02:26:53;;;;;;;3.28;3.00;;;22.10;99.90;;;;;;5116715;27;20547;-80
2021/07/23 02:29:20;;;;;;;2.75;2.55;;;22.10;99.90;;;;;;5136246;27;20228;-80
2021/07/23 02:31:47;;;;;;;3.45;3.25;;;22.00;99.90;;;;;;5135572;27;20191;-79
2021/07/23 02:34:15;;;;;;;3.20;2.72;;;22.00;99.90;;;;;;5136696;27;20213;-80
2021/07/23 02:36:41;;;;;;;3.65;3.30;;;22.00;99.90;;;;;;5124667;27;20202;-81
2021/07/23 02:39:08;;;;;;;2.92;2.72;;;22.00;99.90;;;;;;5128025;27;20205;-80
2021/07/23 02:41:35;;;;;;;3.05;2.85;;;22.00;99.90;;;;;;5137299;27;20286;-81
2021/07/23 02:44:01;;;;;;;2.97;2.78;;;22.00;99.90;;;;;;5137595;27;20208;-80
2021/07/23 02:46:29;;;;;;;3.03;2.80;;;21.90;99.90;;;;;;5137382;27;20220;-81
2021/07/23 02:48:55;;;;;;;3.25;3.05;;;21.90;99.90;;;;;;5119984;27;20208;-81
2021/07/23 02:51:23;;;;;;;3.58;3.28;;;21.90;99.90;;;;;;5116954;27;20205;-81
2021/07/23 02:53:50;;;;;;;3.10;2.90;;;21.90;99.90;;;;;;5131789;27;20197;-81
2021/07/23 02:56:17;;;;;;;2.88;2.67;;;21.90;99.90;;;;;;5132101;27;20520;-81
2021/07/23 02:58:46;;;;;;;3.40;3.10;;;21.80;99.90;;;;;;5133214;27;20627;-81
2021/07/23 03:01:13;;;;;;;3.58;3.28;;;21.80;99.90;;;;;;5123230;27;20266;-81
2021/07/23 03:03:39;;;;;;;3.08;2.83;;;21.80;99.90;;;;;;5116441;28;20850;-81
2021/07/23 03:06:06;;;;;;;2.80;2.60;;;21.80;99.90;;;;;;5116713;27;20209;-81
2021/07/23 03:08:34;;;;;;;3.25;3.05;;;21.80;99.90;;;;;;5117100;27;20201;-81
2021/07/23 03:11:03;;;;;;;3.35;3.15;;;21.80;99.90;;;;;;5115372;28;20220;-81
2021/07/23 03:13:31;;;;;;;3.08;2.83;;;21.70;99.90;;;;;;5114785;28;20632;-81
2021/07/23 03:15:57;;;;;;;3.03;2.72;;;21.70;99.90;;;;;;5114972;28;20197;-82
2021/07/23 03:18:24;;;;;;;3.95;2.90;;;21.70;99.90;;;;;;5126119;27;20199;-82
2021/07/23 03:20:51;;;;;;;4.07;3.67;;;21.70;99.90;;;;;;5135513;27;20293;-82
2021/07/23 03:23:17;;;;;;;5.38;3.88;;;21.70;99.90;;;;;;5134940;27;20193;-82
2021/07/23 03:25:45;;;;;;;3.08;2.88;;;21.60;99.90;;;;;;5126825;27;20217;-82
2021/07/23 03:28:12;;;;;;;3.22;3.03;;;21.60;99.90;;;;;;5114847;27;20205;-82
2021/07/23 03:30:39;;;;;;;4.20;3.90;;;21.60;99.90;;;;;;5114709;27;20197;-82
2021/07/23 03:33:05;;;;;;;3.40;3.20;;;21.50;99.90;;;;;;5115004;28;20208;-82
2021/07/23 03:35:32;;;;;;;4.10;3.28;;;21.50;99.90;;;;;;5117477;27;20190;-82
2021/07/23 03:37:59;;;;;;;4.47;3.17;;;21.50;99.90;;;;;;5123895;27;20258;-80
2021/07/23 03:40:25;;;;;;;4.30;3.90;;;21.50;99.90;;;;;;5133951;27;20192;-83
2021/07/23 03:42:53;;;;;;;3.65;3.35;;;21.50;99.90;;;;;;5135982;27;20201;-80
2021/07/23 03:45:20;;;;;;;3.17;2.97;;;21.50;99.90;;;;;;5119904;27;20205;-81
2021/07/23 03:47:47;;;;;;;4.38;3.75;;;21.50;99.90;;;;;;5127384;27;20261;-81
2021/07/23 03:50:14;;;;;;;2.30;2.15;;;21.50;99.90;;;;;;5136048;27;20201;-80
2021/07/23 03:52:40;;;;;;;3.30;3.00;;;21.40;99.90;;;;;;5136038;27;20563;-81
2021/07/23 03:55:10;;;;;;;3.53;3.22;;;21.40;99.90;;;;;;5115596;27;20201;-82
2021/07/23 03:57:38;;;;;;;3.65;3.35;;;21.40;99.90;;;;;;5119034;27;20195;-81
2021/07/23 04:00:07;;;;;;;3.55;2.50;;;21.40;99.90;;;;;;5115608;28;20548;-80
2021/07/23 04:02:35;;;;;;;3.67;3.42;;;21.30;99.90;;;;;;5116796;27;20205;-81
2021/07/23 04:05:01;;;;;;;3.00;2.80;;;21.30;99.90;;;;;;5120124;27;20200;-84
2021/07/23 04:07:30;;;;;;;2.85;2.65;;;21.30;99.90;;;;;;5132879;27;20213;-83
2021/07/23 04:09:56;;;;;;;3.85;3.55;;;21.30;99.90;;;;;;5114028;28;20197;-78
2021/07/23 04:12:23;;;;;;;3.38;3.08;;;21.30;99.90;;;;;;5113898;28;20578;-78
2021/07/23 04:14:50;;;;;;;3.05;2.85;;;21.30;99.90;;;;;;5112972;28;20663;-78
2021/07/23 04:17:18;;;;;;;3.35;3.05;;;21.30;99.90;;;;;;5113661;28;20670;-78
2021/07/23 04:19:44;;;;;;;3.20;3.00;;;21.20;99.90;;;;;;5113569;28;20197;-79
2021/07/23 04:22:11;;;;;;;3.95;3.60;;;21.20;99.90;;;;;;5113406;28;20225;-78
2021/07/23 04:24:38;;;;;;;3.67;3.40;;;21.20;99.90;;;;;;5113507;28;20212;-78
2021/07/23 04:27:05;;;;;;;3.53;3.22;;;21.20;99.90;;;;;;5112704;28;20225;-78
2021/07/23 04:29:31;;;;;;;3.78;3.42;;;21.20;99.90;;;;;;5113255;28;20194;-78
2021/07/23 04:31:58;;;;;;;3.45;3.15;;;21.20;99.90;;;;;;5113239;28;20189;-78
2021/07/23 04:34:26;;;;;;;3.47;3.25;;;21.10;99.90;;;;;;5113380;28;20189;-78
2021/07/23 04:36:53;;;;;;;2.85;2.65;;;21.10;99.90;;;;;;5114043;28;20185;-78
2021/07/23 04:39:19;;;;;;;4.05;3.67;;;21.10;99.90;;;;;;5122296;27;20197;-80
2021/07/23 04:41:46;;;;;;;4.38;3.13;;;21.10;99.90;;;;;;5115778;27;20208;-79
2021/07/23 04:44:13;;;;;;;3.80;3.50;;;21.10;99.90;;;;;;5134821;27;20199;-79
2021/07/23 04:46:39;;;;;;;4.10;3.70;;;21.10;99.90;;;;;;5134504;27;20216;-79
2021/07/23 04:49:06;;;;;;;6.07;3.60;;;21.00;99.90;;;;;;5133037;27;20205;-79
2021/07/23 04:51:34;;;;;;;2.85;2.65;;;20.90;99.90;;;;;;5127743;27;20189;-83
2021/07/23 04:54:00;;;;;;;3.45;3.15;;;21.00;99.90;;;;;;5134935;27;20216;-82
2021/07/23 04:56:27;;;;;;;4.40;4.00;;;20.90;99.90;;;;;;5134622;27;20196;-82
2021/07/23 04:58:54;;;;;;;4.07;3.75;;;20.90;99.90;;;;;;5134994;27;20227;-81
2021/07/23 05:01:20;;;;;;;4.05;2.80;;;20.90;99.90;;;;;;5113906;27;20205;-81
2021/07/23 05:03:47;;;;;;;3.65;3.40;;;20.90;99.90;;;;;;5113524;28;20532;-81
2021/07/23 05:06:14;;;;;;;3.63;3.33;;;20.90;99.90;;;;;;5114003;28;20777;-80
2021/07/23 05:08:42;;;;;;;3.13;2.92;;;20.90;99.90;;;;;;5114235;28;20197;-80
2021/07/23 05:11:10;;;;;;;4.65;3.20;;;20.90;99.90;;;;;;5113289;28;20201;-79
2021/07/23 05:13:37;;;;;;;3.50;3.20;;;20.80;99.90;;;;;;5113927;28;20185;-81
2021/07/23 05:16:05;;;;;;;3.10;2.90;;;20.90;99.90;;;;;;5113640;28;20208;-81
2021/07/23 05:18:32;;;;;;;3.78;3.25;;;20.90;99.90;;;;;;5114047;28;20190;-80
2021/07/23 05:20:58;;;;;;;3.38;3.08;;;20.80;99.90;;;;;;5113526;28;20235;-80
2021/07/23 05:23:26;;;;;;;3.72;3.53;;;20.90;99.90;;;;;;5113876;28;20216;-81
2021/07/23 05:25:54;;;;;;;3.47;3.17;;;20.90;99.90;;;;;;5112646;28;20197;-82
2021/07/23 05:28:21;;;;;;;3.13;2.92;;;20.80;99.90;;;;;;5114364;28;20213;-86
2021/07/23 05:30:47;;;;;;;3.85;3.53;;;20.80;99.90;;;;;;5114359;28;20200;-91
2021/07/23 05:33:14;;;;;;;2.97;2.70;;;20.80;99.90;;;;;;5114894;28;20302;-90
2021/07/23 05:35:41;;;;;;;3.05;2.85;;;20.80;99.90;;;;;;5114184;28;20200;-89
2021/07/23 05:38:14;;;;;;;3.70;3.40;;;20.80;99.90;;;;;;5118874;27;20197;-89
2021/07/23 05:40:40;;;;;;;3.85;3.40;;;20.80;99.90;;;;;;5136009;27;20189;-83
2021/07/23 05:43:08;;;;;;;4.50;3.50;;;20.90;99.90;;;;;;5121989;27;20185;-88
2021/07/23 05:45:38;;;;;;;3.33;3.00;;;21.00;99.90;;;;;;5134574;27;20211;-86
2021/07/23 05:48:05;;;;;;;3.47;3.13;;;21.10;99.90;;;;;;5144640;27;20243;-86
2021/07/23 05:50:32;;;;;;;2.88;2.67;;;21.30;99.90;;;;;;5139750;27;20527;-86
2021/07/23 05:52:59;;;;;;;3.50;3.30;;;21.40;99.90;;;;;;5119722;28;20648;-87
2021/07/23 05:55:25;;;;;;;3.15;2.95;;;21.60;99.90;;;;;;5123652;27;20208;-86
2021/07/23 05:57:57;;;;;;;3.72;3.42;;;21.70;99.90;;;;;;5119653;27;20185;-85
2021/07/23 06:00:26;;;;;;;3.70;3.40;;;21.90;99.90;;;;;;5124059;27;20208;-83
2021/07/23 06:02:53;;;;;;;3.40;3.20;;;22.00;99.90;;;;;;5125047;27;20280;-86
2021/07/23 06:05:20;;;;;;;3.55;3.25;;;22.20;99.90;;;;;;5137220;27;20197;-90
2021/07/23 06:07:46;;;;;;;3.70;2.83;;;22.30;99.90;;;;;;5122115;27;20623;-86
2021/07/23 06:10:13;;;;;;;3.35;3.05;;;22.50;99.90;;;;;;5117412;27;20711;-87
2021/07/23 06:12:40;;;;;;;3.70;3.27;;;22.60;99.90;;;;;;5116649;28;20205;-88
2021/07/23 06:15:08;;;;;;;3.50;3.20;;;22.70;99.90;;;;;;5124785;27;20433;-81
2021/07/23 06:17:36;;;;;;;3.47;3.20;;;22.80;99.90;;;;;;5139599;27;20449;-79
2021/07/23 06:20:02;;;;;;;3.97;3.67;;;22.90;99.90;;;;;;5116998;27;20439;-80
2021/07/23 06:22:29;;;;;;;5.90;3.07;;;23.00;99.90;;;;;;5116090;28;20548;-82
2021/07/23 06:24:58;;;;;;;3.00;2.80;;;23.00;99.90;;;;;;5117032;27;20443;-82
2021/07/23 06:27:24;;;;;;;5.63;2.53;;;23.10;99.90;;;;;;5117753;28;20470;-86
2021/07/23 06:29:53;;;;;;;3.63;2.80;;;23.20;99.90;;;;;;5131596;27;20450;-79
2021/07/23 06:32:20;;;;;;;2.97;2.77;;;23.20;99.90;;;;;;5139100;27;20446;-88
2021/07/23 06:34:48;;;;;;;3.00;2.80;;;23.30;99.90;;;;;;5129868;27;20440;-88
2021/07/23 06:37:20;;;;;;;2.50;2.20;;;23.40;99.90;;;;;;5117235;28;20435;-78
2021/07/23 06:39:47;;;;;;;3.90;2.33;;;23.40;99.90;;;;;;5131499;27;20442;-83
2021/07/23 06:42:13;;;;;;;3.27;2.83;;;23.50;99.90;;;;;;5129571;27;20453;-85
2021/07/23 06:44:40;;;;;;;2.90;2.70;;;23.50;99.90;;;;;;5134350;27;20508;-82
2021/07/23 06:47:07;;;;;;;2.97;2.13;;;23.60;99.90;;;;;;5118087;28;20501;-83
2021/07/23 06:49:33;;;;;;;4.83;2.20;;;23.70;99.90;;;;;;5120317;27;20446;-79
2021/07/23 06:52:02;;;;;;;3.43;2.33;;;23.80;99.90;;;;;;5132005;27;20444;-79
2021/07/23 06:54:28;;;;;;;3.20;2.50;;;23.80;99.90;;;;;;5118644;27;20446;-77
2021/07/23 06:56:55;;;;;;;2.53;2.33;;;23.90;99.80;;;;;;5117114;28;20455;-80
2021/07/23 06:59:22;;;;;;;2.80;2.60;;;24.00;99.40;;;;;;5121756;27;20538;-78
2021/07/23 07:01:49;;;;;;;3.00;2.07;;;24.00;99.20;;;;;;5118516;27;20467;-79
2021/07/23 07:04:15;;;;;;;2.63;2.30;;;24.00;99.10;;;;;;5131281;27;20944;-78
2021/07/23 07:06:42;;;;;;;2.77;2.17;;;24.10;99.00;;;;;;5136915;27;20479;-78
2021/07/23 07:09:10;;;;;;;3.00;2.13;;;24.10;98.90;;;;;;5137597;27;20909;-78
2021/07/23 07:11:38;;;;;;;3.43;2.07;;;24.30;98.70;;;;;;5137239;27;20443;-89
2021/07/23 07:14:06;;;;;;;2.93;1.87;;;24.30;98.50;;;;;;5121535;27;20447;-77
2021/07/23 07:16:32;;;;;;;3.20;2.47;;;24.40;98.30;;;;;;5116654;28;21047;-83
2021/07/23 07:18:59;;;;;;;3.53;2.23;;;24.50;98.00;;;;;;5132295;27;20451;-81
2021/07/23 07:21:25;;;;;;;2.00;1.77;;;24.50;97.80;;;;;;5116228;28;20482;-80
2021/07/23 07:23:52;;;;;;;1.73;1.63;;;24.60;97.90;;;;;;5116608;28;20447;-82
2021/07/23 07:26:20;;;;;;;3.37;2.70;;;24.60;97.70;;;;;;5116299;28;20448;-86
2021/07/23 07:28:47;;;;;;;2.60;2.40;;;24.60;97.50;;;;;;5134254;27;20465;-80
2021/07/23 07:31:16;;;;;;;4.50;2.27;;;24.70;97.10;;;;;;5135882;27;20458;-83
2021/07/23 07:33:43;;;;;;;2.10;1.90;;;24.70;97.00;;;;;;5134967;27;20503;-87
2021/07/23 07:36:11;;;;;;;2.40;2.20;;;24.80;97.30;;;;;;5116203;27;20914;-79
2021/07/23 07:38:38;;;;;;;4.30;3.30;;;24.90;96.80;;;;;;5132642;27;20491;-78
2021/07/23 07:41:05;;;;;;;2.30;2.10;;;24.90;96.40;;;;;;5135694;27;20446;-79
2021/07/23 07:43:33;;;;;;;2.30;1.87;;;24.90;96.40;;;;;;5115287;28;20446;-79
2021/07/23 07:45:59;;;;;;;2.60;1.73;;;24.90;96.20;;;;;;5120155;27;20449;-79
2021/07/23 07:48:26;;;;;;;3.30;2.20;;;25.00;96.40;;;;;;5125056;27;20488;-79
2021/07/23 07:50:53;;;;;;;2.23;1.80;;;25.00;96.30;;;;;;5120363;27;20443;-80
2021/07/23 07:53:19;;;;;;;1.70;1.50;;;25.10;96.20;;;;;;5117565;27;20449;-79
2021/07/23 07:55:47;;;;;;;2.53;2.20;;;25.10;96.20;;;;;;5127871;27;20447;-79
2021/07/23 07:58:13;;;;;;;1.77;1.67;;;25.20;95.80;;;;;;5113942;28;20462;-80
2021/07/23 08:00:41;;;;;;;2.90;2.03;;;25.20;95.60;;;;;;5112993;28;20442;-79
2021/07/23 08:03:08;;;;;;;5.03;1.60;;;25.30;95.50;;;;;;5114095;28;20480;-79
2021/07/23 08:05:35;;;;;;;2.23;2.03;;;25.30;95.20;;;;;;5113546;28;20447;-79
2021/07/23 08:08:03;;;;;;;2.30;2.10;;;25.30;94.90;;;;;;5113234;28;20471;-79
2021/07/23 08:10:33;;;;;;;2.70;1.90;;;25.40;94.90;;;;;;5113765;28;20466;-79
2021/07/23 08:13:00;;;;;;;3.97;2.10;;;25.50;94.80;;;;;;5120368;27;20435;-79
2021/07/23 08:15:27;;;;;;;2.00;1.90;;;25.50;94.90;;;;;;5134545;27;20442;-79
2021/07/23 08:17:55;;;;;;;2.10;1.90;;;25.50;94.70;;;;;;5134163;27;20442;-79
2021/07/23 08:20:21;;;;;;;4.50;2.07;;;25.50;94.60;;;;;;5121711;27;20495;-79
2021/07/23 08:22:48;;;;;;;2.97;2.23;;;25.60;94.60;;;;;;5128332;27;20531;-79
2021/07/23 08:25:15;;;;;;;2.17;2.07;;;25.60;94.60;;;;;;5122068;27;20453;-80
2021/07/23 08:27:41;;;;;;;2.23;1.70;;;25.70;94.80;;;;;;5134824;27;20473;-79
2021/07/23 08:30:09;;;;;;;1.97;1.87;;;25.70;94.40;;;;;;5120822;27;20443;-80
2021/07/23 08:32:37;;;;;;;4.33;3.00;;;25.70;94.50;;;;;;5114807;27;21027;-80
2021/07/23 08:35:06;;;;;;;2.00;1.90;;;25.80;94.30;;;;;;5133086;27;20446;-79
2021/07/23 08:37:33;;;;;;;3.67;2.20;;;25.80;94.50;;;;;;5126018;27;20447;-80
2021/07/23 08:40:00;;;;;;;2.40;2.20;;;25.90;93.80;;;;;;5117775;27;20515;-79
2021/07/23 08:42:28;;;;;;;2.30;2.10;;;25.90;93.80;;;;;;5129191;27;20442;-80
2021/07/23 08:44:56;;;;;;;3.00;2.03;;;25.90;93.80;;;;;;5135213;27;20438;-79
2021/07/23 08:47:23;;;;;;;2.00;1.80;;;25.90;94.10;;;;;;5129568;27;20470;-79
2021/07/23 08:49:50;;;;;;;2.67;2.07;;;25.90;93.80;;;;;;5114000;28;20447;-79
2021/07/23 08:52:19;;;;;;;2.10;1.90;;;26.00;93.70;;;;;;5118384;27;20486;-82
2021/07/23 08:54:46;;;;;;;2.00;1.80;;;26.00;93.10;;;;;;5123499;27;20443;-83
2021/07/23 08:57:12;;;;;;;1.63;1.53;;;26.10;93.40;;;;;;5129016;27;20527;-82
2021/07/23 08:59:39;;;;;;;2.70;2.33;;;26.10;93.50;;;;;;5124589;27;20893;-82
2021/07/23 09:02:07;;;;;;;2.40;2.20;;;26.10;93.50;;;;;;5115138;27;20466;-79
2021/07/23 09:04:36;;;;;;;2.23;2.03;;;26.10;93.50;;;;;;5116244;27;20465;-83
2021/07/23 09:07:31;;;;;;;3.80;2.17;;;26.10;93.30;;;;;;5117493;27;20789;-86
2021/07/23 09:10:04;;;;;;;2.80;2.60;;;26.10;93.10;;;;;;5133179;27;20441;-86
2021/07/23 09:12:42;;;;;;;3.90;2.00;;;26.10;93.40;;;;;;5133655;27;20472;-86
2021/07/23 09:15:23;;;;;;;3.10;2.03;;;26.10;93.10;;;;;;5116918;27;20470;-81
2021/07/23 09:17:51;;;;;;;2.20;2.00;;;26.10;92.90;;;;;;5124593;27;20454;-82
2021/07/23 09:20:23;;;;;;;3.00;2.10;;;26.10;93.10;;;;;;5125345;27;20454;-81
2021/07/23 09:22:54;;;;;;;4.30;2.23;;;26.10;93.00;;;;;;5130349;27;20521;-77
2021/07/23 09:25:37;;;;;;;3.97;2.20;;;26.10;93.30;;;;;;5134117;27;20453;-79
2021/07/23 09:28:29;;;;;;;2.57;2.37;;;26.10;92.60;;;;;;5118021;27;20467;-77
2021/07/23 09:30:57;;;;;;;2.03;1.93;;;26.10;93.20;;;;;;5114365;28;20435;-77
2021/07/23 09:33:26;;;;;;;3.13;2.10;;;26.10;92.80;;;;;;5116722;27;20464;-79
2021/07/23 09:35:54;;;;;;;2.63;1.70;;;26.10;93.20;;;;;;5122811;27;20443;-80
2021/07/23 09:38:23;;;;;;;2.13;2.03;;;26.10;93.40;;;;;;5125035;28;20442;-79
2021/07/23 09:40:52;;;;;;;3.53;1.87;;;26.10;93.30;;;;;;5132743;27;20450;-80
2021/07/23 09:43:35;;;;;;;4.73;4.00;;;26.10;92.90;;;;;;5133051;27;20442;-86
2021/07/23 09:46:26;;;;;;;3.73;2.80;;;25.90;90.30;;;;;;5133648;27;20441;-85
2021/07/23 09:48:54;;;;;;;4.17;2.63;;;25.90;91.50;;;;;;5119349;28;20470;-85
2021/07/23 09:51:22;;;;;;;1.70;1.60;;;26.00;92.60;;;;;;5114010;28;20773;-87
2021/07/23 09:53:50;;;;;;;2.60;2.17;;;26.00;92.40;;;;;;5114079;28;20443;-85
2021/07/23 09:56:17;;;;;;;4.77;2.40;;;26.00;92.20;;;;;;5113936;28;20447;-82
2021/07/23 09:58:46;;;;;;;2.40;2.20;;;26.00;92.50;;;;;;5132656;27;20442;-84
2021/07/23 10:01:23;;;;;;;2.90;2.63;;;25.90;92.60;;;;;;5134420;27;20786;-83
2021/07/23 10:03:53;;;;;;;3.47;2.53;;;25.90;92.50;;;;;;5121992;27;20909;-87
2021/07/23 10:06:24;;;;;;;4.77;3.57;;;25.90;92.50;;;;;;5125749;28;20443;-80
2021/07/23 10:08:57;;;;;;;4.97;3.00;;;25.90;91.20;;;;;;5121948;27;20491;-87
2021/07/23 10:11:24;;;;;;;3.57;2.73;;;25.90;91.70;;;;;;5111615;27;20454;-76
2021/07/23 10:13:54;;;;;;;2.50;2.30;;;25.90;92.10;;;;;;5113143;28;20824;-79
2021/07/23 10:16:21;;;;;;;2.20;2.07;;;25.90;92.40;;;;;;5124657;28;20770;-80
2021/07/23 10:18:50;;;;;;;3.20;2.90;;;25.90;92.30;;;;;;5123962;28;20457;-77
2021/07/23 10:21:16;;;;;;;2.40;2.20;;;25.90;92.50;;;;;;5112787;28;20844;-86
2021/07/23 10:23:45;;;;;;;2.67;2.47;;;25.90;92.60;;;;;;5128376;27;20446;-80
2021/07/23 10:26:14;;;;;;;2.80;2.60;;;25.90;92.80;;;;;;5134419;27;20442;-82
2021/07/23 10:28:53;;;;;;;3.77;2.73;;;25.90;92.80;;;;;;5117318;27;20483;-84
2021/07/23 10:31:42;;;;;;;3.10;2.80;;;25.80;92.40;;;;;;5124941;27;20831;-78
2021/07/23 10:34:10;;;;;;;3.10;2.70;;;25.80;92.60;;;;;;5116675;27;20470;-79
2021/07/23 10:36:42;;;;;;;2.67;2.43;;;25.80;92.70;;;;;;5127545;27;20467;-82
2021/07/23 10:39:10;;;;;;;2.50;2.30;;;25.80;92.70;;;;;;5126532;27;20769;-77
2021/07/23 10:41:40;;;;;;;2.90;2.67;;;25.80;92.60;;;;;;5122348;27;20909;-80
2021/07/23 10:44:12;;;;;;;3.00;2.80;;;25.70;93.10;;;;;;5124638;27;20450;-79
2021/07/23 10:46:55;;;;;;;2.60;2.40;;;25.70;93.10;;;;;;5123223;27;20585;-79
2021/07/23 10:49:46;;;;;;;3.60;2.33;;;25.70;93.60;;;;;;5136559;27;20513;-77
2021/07/23 10:52:26;;;;;;;2.60;2.40;;;25.70;93.50;;;;;;5116686;27;20431;-77
2021/07/23 10:55:12;;;;;;;7.97;3.20;;;25.70;93.30;;;;;;5134114;27;20442;-77
2021/07/23 10:57:40;;;;;;;3.53;3.03;;;25.70;93.50;;;;;;5116267;27;20442;-80
2021/07/23 11:00:08;;;;;;;2.70;2.50;;;25.70;93.00;;;;;;5118873;27;20466;-81
2021/07/23 11:02:45;;;;;;;2.97;2.43;;;25.60;93.50;;;;;;5136502;27;20913;-84
2021/07/23 11:05:15;;;;;;;3.33;3.03;;;25.60;93.50;;;;;;5125235;27;20786;-79
2021/07/23 11:07:43;;;;;;;3.30;3.03;;;25.60;93.50;;;;;;5116831;27;20446;-83
2021/07/23 11:10:13;;;;;;;5.00;2.70;;;25.60;93.50;;;;;;5122090;27;20564;-79
2021/07/23 11:12:42;;;;;;;3.47;3.17;;;25.50;94.00;;;;;;5131078;27;20447;-84
2021/07/23 11:15:12;;;;;;;3.60;3.30;;;25.60;94.30;;;;;;5125656;27;20535;-82
2021/07/23 11:17:54;;;;;;;4.20;3.10;;;25.50;94.20;;;;;;5125923;27;20530;-79
2021/07/23 11:20:37;;;;;;;3.43;2.80;;;25.50;93.70;;;;;;5125969;27;20450;-77
2021/07/23 11:23:05;;;;;;;3.03;2.83;;;25.50;94.30;;;;;;5130989;27;20447;-80
2021/07/23 11:25:32;;;;;;;5.50;2.80;;;25.50;94.10;;;;;;5124616;27;20471;-76
2021/07/23 11:28:05;;;;;;;4.07;3.20;;;25.50;94.20;;;;;;5122862;27;20447;-78
2021/07/23 11:30:34;;;;;;;2.80;2.60;;;25.50;94.10;;;;;;5115567;27;20930;-79
2021/07/23 11:33:03;;;;;;;3.80;2.43;;;25.50;94.50;;;;;;5115706;28;20488;-80
2021/07/23 11:35:33;;;;;;;3.20;2.90;;;25.50;94.40;;;;;;5119152;27;20447;-80
2021/07/23 11:38:02;;;;;;;2.67;2.47;;;25.40;94.00;;;;;;5115967;27;20454;-80
2021/07/23 11:40:28;;;;;;;2.67;2.37;;;25.40;94.20;;;;;;5131266;27;20470;-79
2021/07/23 11:42:59;;;;;;;2.67;2.47;;;25.40;94.10;;;;;;5134215;27;20445;-85
2021/07/23 11:45:33;;;;;;;3.43;3.00;;;25.40;94.60;;;;;;5126028;27;20466;-82
2021/07/23 11:48:09;;;;;;;6.43;3.30;;;25.40;94.80;;;;;;5135039;27;20437;-83
2021/07/23 11:50:36;;;;;;;3.67;3.03;;;25.40;94.80;;;;;;5136104;27;20784;-86
2021/07/23 11:53:05;;;;;;;3.73;3.43;;;25.40;94.60;;;;;;5119133;27;20439;-77
2021/07/23 11:55:40;;;;;;;4.87;2.80;;;25.30;94.50;;;;;;5134153;27;20489;-76
2021/07/23 11:58:07;;;;;;;4.80;3.50;;;25.30;94.50;;;;;;5129665;27;20438;-76
2021/07/23 12:00:36;;;;;;;3.20;2.80;;;25.30;94.50;;;;;;5134222;27;20909;-76
2021/07/23 12:03:16;;;;;;;3.33;3.03;;;25.30;94.70;;;;;;5132808;27;20514;-77
2021/07/23 12:05:42;;;;;;;3.30;3.00;;;25.30;94.70;;;;;;5133803;27;20477;-77
2021/07/23 12:08:09;;;;;;;2.67;2.47;;;25.30;94.40;;;;;;5123182;27;20442;-80
2021/07/23 12:10:36;;;;;;;3.83;3.30;;;25.20;94.70;;;;;;5134473;27;20449;-79
2021/07/23 12:13:05;;;;;;;4.27;2.77;;;25.20;95.00;;;;;;5130035;27;20443;-82
2021/07/23 12:15:38;;;;;;;2.87;2.47;;;25.20;95.00;;;;;;5135184;27;20476;-82
2021/07/23 12:18:07;;;;;;;3.03;2.67;;;25.20;94.60;;;;;;5121677;27;20478;-78
2021/07/23 12:20:34;;;;;;;2.73;2.53;;;25.10;94.80;;;;;;5120293;27;20443;-75
2021/07/23 12:23:04;;;;;;;4.27;3.40;;;25.20;94.60;;;;;;5121518;27;20492;-77
2021/07/23 12:25:37;;;;;;;3.70;2.73;;;25.10;94.50;;;;;;5128982;27;20454;-80
2021/07/23 12:28:11;;;;;;;3.30;3.00;;;25.10;94.70;;;;;;5123387;27;20450;-78
2021/07/23 12:30:38;;;;;;;3.40;3.10;;;25.10;94.90;;;;;;5125990;27;20529;-78
2021/07/23 12:33:17;;;;;;;3.30;3.00;;;25.10;95.00;;;;;;5133353;27;20461;-82
2021/07/23 12:35:46;;;;;;;6.63;2.83;;;25.10;95.10;;;;;;5119534;27;20450;-76
2021/07/23 12:38:14;;;;;;;4.77;2.87;;;25.10;95.00;;;;;;5116430;27;20447;-78
2021/07/23 12:40:48;;;;;;;3.37;2.97;;;25.10;95.10;;;;;;5126212;27;20456;-79
2021/07/23 12:43:16;;;;;;;5.60;2.80;;;25.20;94.70;;;;;;5134476;27;20433;-77
2021/07/23 12:45:43;;;;;;;4.50;3.33;;;25.10;94.60;;;;;;5115450;27;20454;-76
2021/07/23 12:48:11;;;;;;;3.40;2.80;;;25.10;94.20;;;;;;5124914;27;20442;-81
2021/07/23 12:50:40;;;;;;;3.50;2.33;;;25.10;94.70;;;;;;5120497;27;20496;-79
2021/07/23 12:53:08;;;;;;;3.40;3.00;;;25.00;94.50;;;;;;5125932;27;20460;-80
2021/07/23 12:55:34;;;;;;;4.20;3.80;;;25.00;94.50;;;;;;5113469;28;20443;-79